sensor_id;sensor_type;location;lat;lon;timestamp;pressure;altitude;pressure_sealevel;temperature;humidity
48156;BME280;35568;48.104;11.782;2024-02-23T00:01:06;93547.79;;;5.56;60.60
48156;BME280;35568;48.104;11.782;2024-02-23T00:03:33;93546.35;;;5.74;59.79
48156;BME280;35568;48.104;11.782;2024-02-23T00:06:01;93551.69;;;6.27;58.99
48156;BME280;35568;48.104;11.782;2024-02-23T00:08:27;93550.28;;;5.98;59.16
48156;BME280;35568;48.104;11.782;2024-02-23T00:10:54;93552.72;;;6.38;58.93
48156;BME280;35568;48.104;11.782;2024-02-23T00:13:21;93551.66;;;6.11;59.12
48156;BME280;35568;48.104;11.782;2024-02-23T00:15:48;93554.75;;;6.01;58.46
48156;BME280;35568;48.104;11.782;2024-02-23T00:18:15;93548.28;;;6.55;58.04
48156;BME280;35568;48.104;11.782;2024-02-23T00:20:42;93552.83;;;6.28;57.84
48156;BME280;35568;48.104;11.782;2024-02-23T00:23:08;93549.33;;;6.27;58.42
48156;BME280;35568;48.104;11.782;2024-02-23T00:25:35;93548.27;;;6.17;58.12
48156;BME280;35568;48.104;11.782;2024-02-23T00:28:02;93553.01;;;6.35;58.06
48156;BME280;35568;48.104;11.782;2024-02-23T00:30:30;93555.41;;;6.15;57.56
48156;BME280;35568;48.104;11.782;2024-02-23T00:32:57;93557.70;;;5.51;58.14
48156;BME280;35568;48.104;11.782;2024-02-23T00:35:24;93558.16;;;5.69;58.33
48156;BME280;35568;48.104;11.782;2024-02-23T00:37:51;93562.01;;;5.67;58.63
48156;BME280;35568;48.104;11.782;2024-02-23T00:40:18;93550.04;;;5.75;58.10
48156;BME280;35568;48.104;11.782;2024-02-23T00:42:45;93551.30;;;5.97;58.20
48156;BME280;35568;48.104;11.782;2024-02-23T00:45:11;93555.43;;;6.11;57.62
48156;BME280;35568;48.104;11.782;2024-02-23T00:47:38;93550.72;;;6.36;57.23
48156;BME280;35568;48.104;11.782;2024-02-23T00:50:06;93549.53;;;6.18;57.29
48156;BME280;35568;48.104;11.782;2024-02-23T00:52:33;93552.07;;;6.28;56.89
48156;BME280;35568;48.104;11.782;2024-02-23T00:55:00;93555.97;;;6.56;57.01
48156;BME280;35568;48.104;11.782;2024-02-23T00:57:27;93557.91;;;5.63;57.36
48156;BME280;35568;48.104;11.782;2024-02-23T00:59:54;93562.75;;;5.98;56.70
48156;BME280;35568;48.104;11.782;2024-02-23T01:02:21;93561.78;;;6.12;56.71
48156;BME280;35568;48.104;11.782;2024-02-23T01:04:48;93563.87;;;5.77;56.93
48156;BME280;35568;48.104;11.782;2024-02-23T01:07:15;93564.61;;;6.18;56.64
48156;BME280;35568;48.104;11.782;2024-02-23T01:09:41;93567.80;;;5.57;56.67
48156;BME280;35568;48.104;11.782;2024-02-23T01:12:08;93567.59;;;5.52;57.28
48156;BME280;35568;48.104;11.782;2024-02-23T01:14:35;93577.99;;;5.80;57.39
48156;BME280;35568;48.104;11.782;2024-02-23T01:17:02;93579.10;;;5.81;57.30
48156;BME280;35568;48.104;11.782;2024-02-23T01:19:30;93577.45;;;5.87;57.28
48156;BME280;35568;48.104;11.782;2024-02-23T01:21:56;93582.44;;;5.82;57.01
48156;BME280;35568;48.104;11.782;2024-02-23T01:24:23;93587.53;;;5.99;57.08
48156;BME280;35568;48.104;11.782;2024-02-23T01:26:50;93587.33;;;5.71;56.75
48156;BME280;35568;48.104;11.782;2024-02-23T01:29:17;93594.58;;;5.86;56.73
48156;BME280;35568;48.104;11.782;2024-02-23T01:31:44;93592.22;;;5.74;56.54
48156;BME280;35568;48.104;11.782;2024-02-23T01:34:10;93597.63;;;5.87;56.29
48156;BME280;35568;48.104;11.782;2024-02-23T01:36:37;93598.54;;;5.94;56.04
48156;BME280;35568;48.104;11.782;2024-02-23T01:39:04;93607.41;;;6.25;55.44
48156;BME280;35568;48.104;11.782;2024-02-23T01:41:31;93608.97;;;6.01;55.27
48156;BME280;35568;48.104;11.782;2024-02-23T01:43:58;93612.03;;;6.00;56.02
48156;BME280;35568;48.104;11.782;2024-02-23T01:46:25;93612.19;;;5.87;55.96
48156;BME280;35568;48.104;11.782;2024-02-23T01:48:52;93610.07;;;6.17;55.80
48156;BME280;35568;48.104;11.782;2024-02-23T01:51:19;93617.75;;;5.90;55.77
48156;BME280;35568;48.104;11.782;2024-02-23T01:53:46;93615.57;;;5.79;56.02
48156;BME280;35568;48.104;11.782;2024-02-23T01:56:14;93608.64;;;6.08;55.78
48156;BME280;35568;48.104;11.782;2024-02-23T01:58:41;93604.94;;;5.74;55.38
48156;BME280;35568;48.104;11.782;2024-02-23T02:01:08;93606.47;;;5.84;56.05
48156;BME280;35568;48.104;11.782;2024-02-23T02:03:37;93608.38;;;5.50;56.35
48156;BME280;35568;48.104;11.782;2024-02-23T02:06:05;93606.85;;;5.66;55.93
48156;BME280;35568;48.104;11.782;2024-02-23T02:08:33;93603.93;;;5.83;55.58
48156;BME280;35568;48.104;11.782;2024-02-23T02:11:00;93606.58;;;6.05;55.46
48156;BME280;35568;48.104;11.782;2024-02-23T02:13:28;93604.79;;;5.81;55.73
48156;BME280;35568;48.104;11.782;2024-02-23T02:15:56;93605.88;;;6.10;55.39
48156;BME280;35568;48.104;11.782;2024-02-23T02:18:23;93605.12;;;6.29;55.39
48156;BME280;35568;48.104;11.782;2024-02-23T02:20:52;93606.76;;;5.99;55.28
48156;BME280;35568;48.104;11.782;2024-02-23T02:23:20;93607.66;;;5.31;55.35
48156;BME280;35568;48.104;11.782;2024-02-23T02:25:52;93608.51;;;6.24;54.41
48156;BME280;35568;48.104;11.782;2024-02-23T02:28:19;93610.65;;;6.15;54.00
48156;BME280;35568;48.104;11.782;2024-02-23T02:30:46;93621.64;;;6.07;54.23
48156;BME280;35568;48.104;11.782;2024-02-23T02:33:13;93631.55;;;5.79;54.81
48156;BME280;35568;48.104;11.782;2024-02-23T02:35:39;93628.65;;;5.87;54.73
48156;BME280;35568;48.104;11.782;2024-02-23T02:38:06;93638.86;;;5.77;54.34
48156;BME280;35568;48.104;11.782;2024-02-23T02:40:33;93647.79;;;5.56;55.05
48156;BME280;35568;48.104;11.782;2024-02-23T02:43:00;93643.34;;;5.53;54.76
48156;BME280;35568;48.104;11.782;2024-02-23T02:45:27;93641.27;;;5.81;54.47
48156;BME280;35568;48.104;11.782;2024-02-23T02:47:54;93641.91;;;5.71;54.18
48156;BME280;35568;48.104;11.782;2024-02-23T02:50:20;93645.16;;;5.68;54.43
48156;BME280;35568;48.104;11.782;2024-02-23T02:52:47;93648.23;;;5.61;54.27
48156;BME280;35568;48.104;11.782;2024-02-23T02:55:14;93652.36;;;5.80;53.87
48156;BME280;35568;48.104;11.782;2024-02-23T02:57:44;93654.15;;;5.95;53.54
48156;BME280;35568;48.104;11.782;2024-02-23T03:00:11;93654.84;;;6.11;53.71
48156;BME280;35568;48.104;11.782;2024-02-23T03:02:38;93658.86;;;6.30;53.39
48156;BME280;35568;48.104;11.782;2024-02-23T03:05:05;93657.35;;;6.09;53.42
48156;BME280;35568;48.104;11.782;2024-02-23T03:07:33;93653.14;;;6.37;53.66
48156;BME280;35568;48.104;11.782;2024-02-23T03:09:59;93649.93;;;6.06;53.50
48156;BME280;35568;48.104;11.782;2024-02-23T03:12:26;93652.18;;;6.02;53.05
48156;BME280;35568;48.104;11.782;2024-02-23T03:14:53;93649.90;;;6.06;53.46
48156;BME280;35568;48.104;11.782;2024-02-23T03:17:21;93650.04;;;5.91;53.71
48156;BME280;35568;48.104;11.782;2024-02-23T03:19:48;93651.08;;;5.79;54.09
48156;BME280;35568;48.104;11.782;2024-02-23T03:22:14;93646.13;;;5.89;53.84
48156;BME280;35568;48.104;11.782;2024-02-23T03:24:41;93650.72;;;5.89;53.17
48156;BME280;35568;48.104;11.782;2024-02-23T03:27:08;93652.51;;;5.66;54.02
48156;BME280;35568;48.104;11.782;2024-02-23T03:29:35;93648.79;;;5.73;53.65
48156;BME280;35568;48.104;11.782;2024-02-23T03:32:02;93648.82;;;5.53;53.84
48156;BME280;35568;48.104;11.782;2024-02-23T03:34:28;93644.77;;;5.63;53.64
48156;BME280;35568;48.104;11.782;2024-02-23T03:36:55;93643.19;;;5.68;53.94
48156;BME280;35568;48.104;11.782;2024-02-23T03:39:22;93647.60;;;5.33;54.05
48156;BME280;35568;48.104;11.782;2024-02-23T03:41:49;93648.95;;;5.40;53.76
48156;BME280;35568;48.104;11.782;2024-02-23T03:44:16;93653.97;;;5.26;54.52
48156;BME280;35568;48.104;11.782;2024-02-23T03:46:43;93654.68;;;5.32;54.20
48156;BME280;35568;48.104;11.782;2024-02-23T03:49:09;93650.34;;;5.49;54.65
48156;BME280;35568;48.104;11.782;2024-02-23T03:51:36;93647.92;;;5.53;54.86
48156;BME280;35568;48.104;11.782;2024-02-23T03:54:03;93648.98;;;5.03;54.62
48156;BME280;35568;48.104;11.782;2024-02-23T03:56:30;93647.76;;;5.29;54.61
48156;BME280;35568;48.104;11.782;2024-02-23T03:59:04;93657.47;;;5.58;54.57
48156;BME280;35568;48.104;11.782;2024-02-23T04:03:01;93663.16;;;5.70;53.80
48156;BME280;35568;48.104;11.782;2024-02-23T04:05:28;93673.87;;;5.47;53.84
48156;BME280;35568;48.104;11.782;2024-02-23T04:07:55;93673.51;;;5.65;53.25
48156;BME280;35568;48.104;11.782;2024-02-23T04:10:21;93669.13;;;5.87;53.76
48156;BME280;35568;48.104;11.782;2024-02-23T04:12:48;93673.49;;;5.49;53.20
48156;BME280;35568;48.104;11.782;2024-02-23T04:15:31;93682.25;;;6.00;54.23
48156;BME280;35568;48.104;11.782;2024-02-23T04:17:57;93689.61;;;5.64;54.18
48156;BME280;35568;48.104;11.782;2024-02-23T04:20:24;93686.27;;;5.43;54.41
48156;BME280;35568;48.104;11.782;2024-02-23T04:22:51;93688.29;;;5.46;54.24
48156;BME280;35568;48.104;11.782;2024-02-23T04:25:18;93685.35;;;5.84;53.79
48156;BME280;35568;48.104;11.782;2024-02-23T04:27:45;93686.67;;;5.57;53.82
48156;BME280;35568;48.104;11.782;2024-02-23T04:30:12;93682.70;;;5.57;53.78
48156;BME280;35568;48.104;11.782;2024-02-23T04:32:39;93684.16;;;5.61;54.07
48156;BME280;35568;48.104;11.782;2024-02-23T04:35:07;93686.61;;;5.78;53.53
48156;BME280;35568;48.104;11.782;2024-02-23T04:37:34;93686.40;;;5.53;53.88
48156;BME280;35568;48.104;11.782;2024-02-23T04:40:01;93685.92;;;5.31;53.45
48156;BME280;35568;48.104;11.782;2024-02-23T04:42:28;93684.64;;;5.75;53.00
48156;BME280;35568;48.104;11.782;2024-02-23T04:44:55;93681.82;;;5.89;53.00
48156;BME280;35568;48.104;11.782;2024-02-23T04:47:21;93687.79;;;5.10;52.74
48156;BME280;35568;48.104;11.782;2024-02-23T04:49:48;93688.73;;;5.56;53.13
48156;BME280;35568;48.104;11.782;2024-02-23T04:52:15;93691.04;;;5.48;52.59
48156;BME280;35568;48.104;11.782;2024-02-23T04:54:42;93691.16;;;5.18;53.17
48156;BME280;35568;48.104;11.782;2024-02-23T04:57:09;93691.01;;;5.10;53.08
48156;BME280;35568;48.104;11.782;2024-02-23T04:59:35;93690.98;;;5.12;53.04
48156;BME280;35568;48.104;11.782;2024-02-23T05:02:02;93696.57;;;5.47;53.50
48156;BME280;35568;48.104;11.782;2024-02-23T05:04:29;93691.97;;;4.94;53.05
48156;BME280;35568;48.104;11.782;2024-02-23T05:06:56;93691.62;;;4.99;53.01
48156;BME280;35568;48.104;11.782;2024-02-23T05:09:23;93690.65;;;5.26;53.21
48156;BME280;35568;48.104;11.782;2024-02-23T05:11:50;93691.99;;;5.04;53.68
48156;BME280;35568;48.104;11.782;2024-02-23T05:14:17;93694.77;;;4.94;53.78
48156;BME280;35568;48.104;11.782;2024-02-23T05:16:43;93695.21;;;5.31;53.97
48156;BME280;35568;48.104;11.782;2024-02-23T05:19:10;93697.15;;;4.99;54.49
48156;BME280;35568;48.104;11.782;2024-02-23T05:21:37;93713.39;;;5.01;54.59
48156;BME280;35568;48.104;11.782;2024-02-23T05:24:04;93722.83;;;5.49;54.04
48156;BME280;35568;48.104;11.782;2024-02-23T05:26:32;93726.79;;;5.52;54.43
48156;BME280;35568;48.104;11.782;2024-02-23T05:28:58;93716.37;;;4.92;55.19
48156;BME280;35568;48.104;11.782;2024-02-23T05:31:44;93708.70;;;4.83;55.09
48156;BME280;35568;48.104;11.782;2024-02-23T05:34:11;93695.91;;;4.98;56.12
48156;BME280;35568;48.104;11.782;2024-02-23T05:36:38;93700.43;;;5.07;56.17
48156;BME280;35568;48.104;11.782;2024-02-23T05:39:05;93700.92;;;4.82;56.50
48156;BME280;35568;48.104;11.782;2024-02-23T05:41:32;93704.52;;;5.17;55.77
48156;BME280;35568;48.104;11.782;2024-02-23T05:43:59;93710.01;;;5.30;55.38
48156;BME280;35568;48.104;11.782;2024-02-23T05:46:26;93710.93;;;5.03;55.40
48156;BME280;35568;48.104;11.782;2024-02-23T05:48:53;93706.13;;;4.95;56.13
48156;BME280;35568;48.104;11.782;2024-02-23T05:51:19;93708.61;;;5.41;55.94
48156;BME280;35568;48.104;11.782;2024-02-23T05:53:46;93714.27;;;5.35;55.63
48156;BME280;35568;48.104;11.782;2024-02-23T05:56:13;93712.59;;;5.60;55.30
48156;BME280;35568;48.104;11.782;2024-02-23T05:58:40;93711.72;;;5.76;55.13
48156;BME280;35568;48.104;11.782;2024-02-23T06:01:07;93716.13;;;5.77;55.16
48156;BME280;35568;48.104;11.782;2024-02-23T06:03:34;93715.01;;;5.62;54.59
48156;BME280;35568;48.104;11.782;2024-02-23T06:06:00;93709.86;;;5.37;54.57
48156;BME280;35568;48.104;11.782;2024-02-23T06:08:27;93705.54;;;5.41;54.78
48156;BME280;35568;48.104;11.782;2024-02-23T06:10:54;93701.50;;;5.51;54.99
48156;BME280;35568;48.104;11.782;2024-02-23T06:13:22;93704.74;;;5.63;54.50
48156;BME280;35568;48.104;11.782;2024-02-23T06:15:49;93718.93;;;5.54;54.28
48156;BME280;35568;48.104;11.782;2024-02-23T06:18:16;93732.64;;;5.94;53.85
48156;BME280;35568;48.104;11.782;2024-02-23T06:20:43;93736.31;;;5.34;54.19
48156;BME280;35568;48.104;11.782;2024-02-23T06:23:10;93739.91;;;5.61;54.22
48156;BME280;35568;48.104;11.782;2024-02-23T06:25:37;93744.71;;;5.58;54.51
48156;BME280;35568;48.104;11.782;2024-02-23T06:28:05;93753.00;;;5.26;54.40
48156;BME280;35568;48.104;11.782;2024-02-23T06:30:32;93755.19;;;5.56;54.13
48156;BME280;35568;48.104;11.782;2024-02-23T06:32:59;93759.15;;;5.31;54.58
48156;BME280;35568;48.104;11.782;2024-02-23T06:35:26;93761.84;;;5.11;54.27
48156;BME280;35568;48.104;11.782;2024-02-23T06:37:53;93764.77;;;5.19;54.10
48156;BME280;35568;48.104;11.782;2024-02-23T06:40:19;93767.41;;;5.16;54.37
48156;BME280;35568;48.104;11.782;2024-02-23T06:42:46;93766.01;;;5.16;54.18
48156;BME280;35568;48.104;11.782;2024-02-23T06:45:13;93766.17;;;5.78;53.74
48156;BME280;35568;48.104;11.782;2024-02-23T06:47:41;93768.50;;;5.34;53.60
48156;BME280;35568;48.104;11.782;2024-02-23T06:50:08;93766.15;;;5.21;54.46
48156;BME280;35568;48.104;11.782;2024-02-23T06:52:34;93760.04;;;5.19;54.32
48156;BME280;35568;48.104;11.782;2024-02-23T06:55:01;93759.94;;;5.34;53.86
48156;BME280;35568;48.104;11.782;2024-02-23T06:57:29;93756.84;;;5.63;53.74
48156;BME280;35568;48.104;11.782;2024-02-23T06:59:56;93753.71;;;5.41;54.02
48156;BME280;35568;48.104;11.782;2024-02-23T07:02:24;93751.64;;;5.83;54.02
48156;BME280;35568;48.104;11.782;2024-02-23T07:04:51;93759.58;;;5.31;53.06
48156;BME280;35568;48.104;11.782;2024-02-23T07:07:18;93759.41;;;5.31;53.83
48156;BME280;35568;48.104;11.782;2024-02-23T07:09:46;93760.68;;;5.15;54.07
48156;BME280;35568;48.104;11.782;2024-02-23T07:12:13;93763.60;;;5.21;54.16
48156;BME280;35568;48.104;11.782;2024-02-23T07:14:39;93769.30;;;5.55;54.48
48156;BME280;35568;48.104;11.782;2024-02-23T07:17:06;93769.47;;;5.14;53.71
48156;BME280;35568;48.104;11.782;2024-02-23T07:19:33;93764.58;;;5.13;53.59
48156;BME280;35568;48.104;11.782;2024-02-23T07:22:00;93772.38;;;5.46;54.03
48156;BME280;35568;48.104;11.782;2024-02-23T07:24:27;93776.99;;;5.28;52.83
48156;BME280;35568;48.104;11.782;2024-02-23T07:26:54;93785.64;;;5.43;53.34
48156;BME280;35568;48.104;11.782;2024-02-23T07:29:21;93785.48;;;5.61;52.85
48156;BME280;35568;48.104;11.782;2024-02-23T07:31:47;93784.16;;;5.23;53.02
48156;BME280;35568;48.104;11.782;2024-02-23T07:34:14;93783.57;;;5.37;52.68
48156;BME280;35568;48.104;11.782;2024-02-23T07:36:41;93788.24;;;5.58;52.66
48156;BME280;35568;48.104;11.782;2024-02-23T07:39:08;93798.81;;;5.58;52.03
48156;BME280;35568;48.104;11.782;2024-02-23T07:41:35;93800.40;;;4.99;51.85
48156;BME280;35568;48.104;11.782;2024-02-23T07:44:02;93804.47;;;5.48;52.32
48156;BME280;35568;48.104;11.782;2024-02-23T07:46:28;93805.38;;;5.17;52.53
48156;BME280;35568;48.104;11.782;2024-02-23T07:48:55;93803.82;;;5.54;53.00
48156;BME280;35568;48.104;11.782;2024-02-23T07:51:22;93797.88;;;5.85;52.07
48156;BME280;35568;48.104;11.782;2024-02-23T07:53:49;93793.91;;;5.77;52.57
48156;BME280;35568;48.104;11.782;2024-02-23T07:56:16;93792.53;;;6.03;51.32
48156;BME280;35568;48.104;11.782;2024-02-23T07:58:43;93789.98;;;5.91;52.39
48156;BME280;35568;48.104;11.782;2024-02-23T08:01:09;93783.25;;;6.17;51.85
48156;BME280;35568;48.104;11.782;2024-02-23T08:03:36;93782.98;;;5.93;51.41
48156;BME280;35568;48.104;11.782;2024-02-23T08:06:04;93774.33;;;5.93;51.96
48156;BME280;35568;48.104;11.782;2024-02-23T08:08:31;93775.83;;;5.81;51.32
48156;BME280;35568;48.104;11.782;2024-02-23T08:10:58;93769.83;;;5.79;51.33
48156;BME280;35568;48.104;11.782;2024-02-23T08:13:24;93766.39;;;6.30;51.12
48156;BME280;35568;48.104;11.782;2024-02-23T08:15:51;93765.54;;;6.32;51.19
48156;BME280;35568;48.104;11.782;2024-02-23T08:18:19;93760.91;;;6.80;51.27
48156;BME280;35568;48.104;11.782;2024-02-23T08:20:46;93757.03;;;6.95;50.52
48156;BME280;35568;48.104;11.782;2024-02-23T08:23:12;93767.84;;;6.77;50.49
48156;BME280;35568;48.104;11.782;2024-02-23T08:25:39;93780.13;;;6.69;49.19
48156;BME280;35568;48.104;11.782;2024-02-23T08:28:07;93762.98;;;6.41;49.67
48156;BME280;35568;48.104;11.782;2024-02-23T08:30:34;93760.00;;;6.97;50.30
48156;BME280;35568;48.104;11.782;2024-02-23T08:33:01;93769.18;;;6.54;49.34
48156;BME280;35568;48.104;11.782;2024-02-23T08:35:27;93771.76;;;6.85;49.55
48156;BME280;35568;48.104;11.782;2024-02-23T08:37:54;93772.06;;;6.77;48.93
48156;BME280;35568;48.104;11.782;2024-02-23T08:40:21;93755.88;;;7.03;49.98
48156;BME280;35568;48.104;11.782;2024-02-23T08:42:48;93752.76;;;7.02;48.48
48156;BME280;35568;48.104;11.782;2024-02-23T08:45:16;93753.18;;;6.73;48.89
48156;BME280;35568;48.104;11.782;2024-02-23T08:47:43;93764.75;;;6.62;49.04
48156;BME280;35568;48.104;11.782;2024-02-23T08:50:10;93754.51;;;6.54;49.37
48156;BME280;35568;48.104;11.782;2024-02-23T08:52:37;93753.21;;;6.74;49.55
48156;BME280;35568;48.104;11.782;2024-02-23T08:55:04;93751.05;;;6.54;49.86
48156;BME280;35568;48.104;11.782;2024-02-23T08:57:31;93769.47;;;6.51;49.20
48156;BME280;35568;48.104;11.782;2024-02-23T08:59:57;93780.76;;;6.25;49.06
48156;BME280;35568;48.104;11.782;2024-02-23T09:02:24;93779.07;;;6.94;49.47
48156;BME280;35568;48.104;11.782;2024-02-23T09:04:51;93783.40;;;6.52;48.32
48156;BME280;35568;48.104;11.782;2024-02-23T09:07:19;93790.92;;;6.47;48.62
48156;BME280;35568;48.104;11.782;2024-02-23T09:09:45;93792.67;;;6.17;49.54
48156;BME280;35568;48.104;11.782;2024-02-23T09:12:12;93799.47;;;6.23;49.00
48156;BME280;35568;48.104;11.782;2024-02-23T09:14:39;93804.93;;;6.39;49.21
48156;BME280;35568;48.104;11.782;2024-02-23T09:17:06;93815.38;;;5.78;49.16
48156;BME280;35568;48.104;11.782;2024-02-23T09:19:33;93830.65;;;5.98;49.98
48156;BME280;35568;48.104;11.782;2024-02-23T09:21:59;93827.81;;;6.20;50.18
48156;BME280;35568;48.104;11.782;2024-02-23T09:24:26;93832.83;;;5.98;49.69
48156;BME280;35568;48.104;11.782;2024-02-23T09:26:53;93831.83;;;6.00;49.50
48156;BME280;35568;48.104;11.782;2024-02-23T09:29:20;93832.90;;;5.94;48.61
48156;BME280;35568;48.104;11.782;2024-02-23T09:31:47;93834.66;;;5.95;48.89
48156;BME280;35568;48.104;11.782;2024-02-23T09:34:14;93841.82;;;5.86;48.30
48156;BME280;35568;48.104;11.782;2024-02-23T09:36:40;93843.34;;;5.46;47.41
48156;BME280;35568;48.104;11.782;2024-02-23T09:39:07;93843.87;;;5.46;47.60
48156;BME280;35568;48.104;11.782;2024-02-23T09:41:35;93846.78;;;5.39;47.87
48156;BME280;35568;48.104;11.782;2024-02-23T09:44:03;93843.89;;;5.32;47.28
48156;BME280;35568;48.104;11.782;2024-02-23T09:46:30;93846.07;;;5.49;48.07
48156;BME280;35568;48.104;11.782;2024-02-23T09:48:58;93849.57;;;5.84;48.47
48156;BME280;35568;48.104;11.782;2024-02-23T09:51:25;93853.22;;;5.01;49.01
48156;BME280;35568;48.104;11.782;2024-02-23T09:53:52;93852.13;;;5.02;49.21
48156;BME280;35568;48.104;11.782;2024-02-23T09:56:20;93845.79;;;4.88;49.12
48156;BME280;35568;48.104;11.782;2024-02-23T09:58:50;93837.52;;;5.02;49.61
48156;BME280;35568;48.104;11.782;2024-02-23T10:01:27;93837.13;;;4.98;50.04
48156;BME280;35568;48.104;11.782;2024-02-23T10:03:56;93843.47;;;4.45;50.69
48156;BME280;35568;48.104;11.782;2024-02-23T10:06:24;93854.46;;;4.98;50.90
48156;BME280;35568;48.104;11.782;2024-02-23T10:08:51;93867.33;;;5.17;51.18
48156;BME280;35568;48.104;11.782;2024-02-23T10:11:19;93868.46;;;5.36;50.97
48156;BME280;35568;48.104;11.782;2024-02-23T10:13:47;93858.44;;;5.49;51.47
48156;BME280;35568;48.104;11.782;2024-02-23T10:16:15;93859.98;;;5.22;51.05
48156;BME280;35568;48.104;11.782;2024-02-23T10:18:42;93855.03;;;6.06;51.09
48156;BME280;35568;48.104;11.782;2024-02-23T10:21:09;93851.89;;;6.24;49.15
48156;BME280;35568;48.104;11.782;2024-02-23T10:23:36;93856.87;;;5.80;49.42
48156;BME280;35568;48.104;11.782;2024-02-23T10:26:04;93859.99;;;5.72;49.01
48156;BME280;35568;48.104;11.782;2024-02-23T10:28:32;93858.13;;;5.38;49.43
48156;BME280;35568;48.104;11.782;2024-02-23T10:30:59;93850.46;;;5.53;50.80
48156;BME280;35568;48.104;11.782;2024-02-23T10:33:27;93848.74;;;5.37;50.11
48156;BME280;35568;48.104;11.782;2024-02-23T10:35:56;93844.93;;;5.28;49.95
48156;BME280;35568;48.104;11.782;2024-02-23T10:38:24;93850.06;;;5.75;50.26
48156;BME280;35568;48.104;11.782;2024-02-23T10:40:54;93849.24;;;5.69;48.45
48156;BME280;35568;48.104;11.782;2024-02-23T10:43:28;93847.20;;;5.38;48.56
48156;BME280;35568;48.104;11.782;2024-02-23T10:45:57;93845.83;;;5.35;48.67
48156;BME280;35568;48.104;11.782;2024-02-23T10:48:26;93850.96;;;5.32;49.39
48156;BME280;35568;48.104;11.782;2024-02-23T10:50:55;93855.73;;;5.24;49.31
48156;BME280;35568;48.104;11.782;2024-02-23T10:53:23;93849.25;;;4.96;49.72
48156;BME280;35568;48.104;11.782;2024-02-23T10:55:55;93844.20;;;5.04;50.55
48156;BME280;35568;48.104;11.782;2024-02-23T10:58:23;93844.07;;;4.82;50.28
48156;BME280;35568;48.104;11.782;2024-02-23T11:00:50;93844.52;;;5.45;49.63
48156;BME280;35568;48.104;11.782;2024-02-23T11:03:18;93840.21;;;5.12;49.28
48156;BME280;35568;48.104;11.782;2024-02-23T11:05:47;93841.88;;;5.43;49.39
48156;BME280;35568;48.104;11.782;2024-02-23T11:08:17;93844.05;;;5.36;49.82
48156;BME280;35568;48.104;11.782;2024-02-23T11:10:49;93842.93;;;5.21;49.69
48156;BME280;35568;48.104;11.782;2024-02-23T11:13:16;93835.92;;;5.57;49.56
48156;BME280;35568;48.104;11.782;2024-02-23T11:15:43;93821.24;;;5.27;49.36
48156;BME280;35568;48.104;11.782;2024-02-23T11:18:28;93813.66;;;5.20;49.85
48156;BME280;35568;48.104;11.782;2024-02-23T11:20:58;93812.50;;;5.58;49.77
48156;BME280;35568;48.104;11.782;2024-02-23T11:23:25;93818.04;;;5.73;50.36
48156;BME280;35568;48.104;11.782;2024-02-23T11:26:05;93825.72;;;6.00;49.37
48156;BME280;35568;48.104;11.782;2024-02-23T11:28:32;93837.46;;;5.64;49.33
48156;BME280;35568;48.104;11.782;2024-02-23T11:30:58;93839.88;;;5.47;49.19
48156;BME280;35568;48.104;11.782;2024-02-23T11:33:26;93842.77;;;5.16;49.43
48156;BME280;35568;48.104;11.782;2024-02-23T11:35:53;93841.56;;;5.32;49.35
48156;BME280;35568;48.104;11.782;2024-02-23T11:38:21;93836.86;;;5.01;49.57
48156;BME280;35568;48.104;11.782;2024-02-23T11:40:48;93836.56;;;4.78;50.01
48156;BME280;35568;48.104;11.782;2024-02-23T11:43:16;93828.93;;;5.11;49.75
48156;BME280;35568;48.104;11.782;2024-02-23T11:45:43;93831.40;;;5.05;49.62
48156;BME280;35568;48.104;11.782;2024-02-23T11:48:10;93834.04;;;5.15;49.46
48156;BME280;35568;48.104;11.782;2024-02-23T11:50:37;93834.22;;;5.70;49.81
48156;BME280;35568;48.104;11.782;2024-02-23T11:53:04;93834.40;;;5.51;48.78
48156;BME280;35568;48.104;11.782;2024-02-23T11:55:31;93841.47;;;5.36;49.68
48156;BME280;35568;48.104;11.782;2024-02-23T11:57:59;93842.34;;;5.33;49.51
48156;BME280;35568;48.104;11.782;2024-02-23T12:00:26;93844.34;;;5.60;48.74
48156;BME280;35568;48.104;11.782;2024-02-23T12:02:54;93841.46;;;5.63;48.40
48156;BME280;35568;48.104;11.782;2024-02-23T12:05:20;93834.11;;;4.78;48.89
48156;BME280;35568;48.104;11.782;2024-02-23T12:07:48;93830.37;;;5.60;49.11
48156;BME280;35568;48.104;11.782;2024-02-23T12:10:16;93826.67;;;6.15;48.78
48156;BME280;35568;48.104;11.782;2024-02-23T12:12:44;93825.29;;;5.67;48.00
48156;BME280;35568;48.104;11.782;2024-02-23T12:15:11;93828.78;;;5.89;48.15
48156;BME280;35568;48.104;11.782;2024-02-23T12:17:47;93831.24;;;5.58;48.16
48156;BME280;35568;48.104;11.782;2024-02-23T12:20:14;93828.21;;;5.41;47.80
48156;BME280;35568;48.104;11.782;2024-02-23T12:22:40;93836.64;;;5.49;48.33
48156;BME280;35568;48.104;11.782;2024-02-23T12:25:07;93842.80;;;5.91;47.96
48156;BME280;35568;48.104;11.782;2024-02-23T12:27:34;93843.41;;;5.66;47.67
48156;BME280;35568;48.104;11.782;2024-02-23T12:30:01;93834.24;;;5.76;47.18
48156;BME280;35568;48.104;11.782;2024-02-23T12:32:28;93827.27;;;5.65;47.26
48156;BME280;35568;48.104;11.782;2024-02-23T12:34:56;93823.71;;;5.41;47.47
48156;BME280;35568;48.104;11.782;2024-02-23T12:37:22;93813.83;;;5.27;46.58
48156;BME280;35568;48.104;11.782;2024-02-23T12:39:51;93804.03;;;5.64;47.22
48156;BME280;35568;48.104;11.782;2024-02-23T12:42:19;93798.01;;;5.56;46.84
48156;BME280;35568;48.104;11.782;2024-02-23T12:44:49;93798.62;;;5.64;47.64
48156;BME280;35568;48.104;11.782;2024-02-23T12:47:17;93803.22;;;5.09;47.11
48156;BME280;35568;48.104;11.782;2024-02-23T12:49:45;93806.85;;;5.41;47.47
48156;BME280;35568;48.104;11.782;2024-02-23T12:52:14;93809.57;;;5.51;47.04
48156;BME280;35568;48.104;11.782;2024-02-23T12:54:42;93813.86;;;5.61;46.78
48156;BME280;35568;48.104;11.782;2024-02-23T12:57:11;93803.33;;;5.28;47.10
48156;BME280;35568;48.104;11.782;2024-02-23T12:59:38;93797.24;;;5.68;46.62
48156;BME280;35568;48.104;11.782;2024-02-23T13:02:08;93785.22;;;5.34;46.07